createdAt,value
2023-01-13T00:05:01.508Z,47.8
2023-01-13T00:10:02.040Z,47.9
2023-01-13T00:15:01.654Z,47.9
2023-01-13T00:25:01.548Z,47.9
2023-01-13T00:30:01.154Z,47.9
2023-01-13T00:35:01.554Z,47.9
2023-01-13T00:40:01.099Z,48.0
2023-01-13T00:45:01.300Z,48.0
2023-01-13T00:50:01.039Z,48.0
2023-01-13T00:55:01.151Z,48.0
2023-01-13T01:05:02.151Z,48.0
2023-01-13T01:15:01.916Z,48.0
2023-01-13T01:25:01.061Z,48.0
2023-01-13T01:30:01.617Z,48.0
2023-01-13T01:35:01.341Z,48.0
2023-01-13T01:45:01.026Z,48.0
2023-01-13T01:50:00.535Z,48.0
2023-01-13T01:55:01.079Z,48.0
2023-01-13T02:00:02.172Z,48.0
2023-01-13T02:05:01.071Z,48.0
2023-01-13T02:15:01.596Z,48.0
2023-01-13T02:20:01.148Z,47.9
2023-01-13T02:25:01.097Z,47.9
2023-01-13T02:35:02.370Z,47.9
2023-01-13T02:40:01.130Z,47.9
2023-01-13T02:45:01.100Z,47.9
2023-01-13T02:55:01.020Z,47.9
2023-01-13T03:00:01.141Z,47.9
2023-01-13T03:05:01.588Z,47.9
2023-01-13T03:15:01.629Z,47.9
2023-01-13T03:20:01.198Z,47.8
2023-01-13T03:25:01.366Z,47.7
2023-01-13T03:30:03.015Z,48.1
2023-01-13T03:35:01.090Z,48.3
2023-01-13T03:40:01.097Z,48.5
2023-01-13T03:45:01.137Z,48.6
2023-01-13T03:55:01.109Z,48.7
2023-01-13T04:00:01.073Z,48.9
2023-01-13T04:05:01.097Z,48.9
2023-01-13T04:10:02.279Z,48.9
2023-01-13T04:15:01.447Z,48.9
2023-01-13T04:20:01.301Z,48.9
2023-01-13T04:25:01.316Z,48.9
2023-01-13T04:35:01.539Z,49.0
2023-01-13T04:40:01.114Z,49.0
2023-01-13T04:45:01.305Z,49.0
2023-01-13T04:50:01.119Z,49.0
2023-01-13T04:55:01.097Z,49.0
2023-01-13T05:00:01.910Z,49.0
2023-01-13T05:05:02.653Z,49.0
2023-01-13T05:10:01.535Z,49.0
2023-01-13T05:15:01.593Z,49.0
2023-01-13T05:20:01.061Z,48.9
2023-01-13T05:25:01.129Z,49.0
2023-01-13T05:35:01.800Z,49.0
2023-01-13T05:40:03.576Z,49.0
2023-01-13T05:45:01.552Z,49.0
2023-01-13T05:50:01.321Z,49.0
2023-01-13T05:55:01.056Z,49.1
2023-01-13T06:00:01.327Z,49.1
2023-01-13T06:05:01.186Z,49.1
2023-01-13T06:15:01.644Z,49.2
2023-01-13T06:20:01.988Z,49.2
2023-01-13T06:25:01.424Z,49.2
2023-01-13T06:30:01.930Z,49.3
2023-01-13T06:35:01.122Z,49.3
2023-01-13T06:40:01.927Z,49.3
2023-01-13T06:45:01.113Z,49.1
2023-01-13T06:50:01.293Z,48.9
2023-01-13T06:55:01.110Z,48.8
2023-01-13T07:00:01.305Z,48.7
2023-01-13T07:05:01.504Z,48.7
2023-01-13T07:10:02.140Z,48.6
2023-01-13T07:15:02.174Z,48.6
2023-01-13T07:20:01.303Z,48.7
2023-01-13T07:25:01.242Z,48.9
2023-01-13T07:30:01.584Z,48.8
2023-01-13T07:35:01.457Z,48.8
2023-01-13T07:40:03.648Z,49.0
2023-01-13T07:45:03.181Z,49.1
2023-01-13T07:55:01.546Z,49.0
2023-01-13T08:00:01.666Z,49.0
2023-01-13T08:05:01.591Z,48.9
2023-01-13T08:15:01.325Z,48.8
2023-01-13T08:20:01.339Z,48.8
2023-01-13T08:25:01.918Z,48.7
2023-01-13T08:35:02.772Z,48.6
2023-01-13T08:40:01.055Z,48.6
2023-01-13T08:45:01.569Z,48.5
2023-01-13T08:55:01.039Z,48.5
2023-01-13T09:00:02.996Z,48.4
2023-01-13T09:05:01.812Z,48.4
2023-01-13T09:15:01.207Z,48.3
2023-01-13T09:20:01.846Z,48.3
2023-01-13T09:25:01.138Z,48.2
2023-01-13T09:35:01.247Z,48.2
2023-01-13T09:40:01.140Z,48.2
2023-01-13T09:45:01.102Z,48.2
2023-01-13T09:55:01.172Z,48.1
2023-01-13T10:00:01.363Z,48.2
2023-01-13T10:05:01.220Z,48.2
2023-01-13T10:15:01.350Z,48.2
2023-01-13T10:20:01.101Z,48.2
2023-01-13T10:25:01.137Z,48.2
2023-01-13T10:35:02.486Z,48.1
2023-01-13T10:40:02.293Z,48.1
2023-01-13T10:45:01.527Z,48.0
2023-01-13T10:55:01.595Z,48.0
2023-01-13T11:00:01.639Z,47.9
2023-01-13T11:05:01.268Z,47.9
2023-01-13T11:15:01.061Z,47.9
2023-01-13T11:20:01.315Z,47.8
2023-01-13T11:25:02.253Z,47.8
2023-01-13T11:35:01.119Z,47.8
2023-01-13T11:40:01.429Z,47.7
2023-01-13T11:45:01.909Z,47.7
2023-01-13T11:55:01.374Z,46.2
2023-01-13T12:00:01.870Z,44.6
2023-01-13T12:05:01.260Z,43.8
2023-01-13T12:15:00.604Z,43.0
2023-01-13T12:20:02.481Z,42.6
2023-01-13T12:25:01.134Z,42.4
2023-01-13T12:35:02.924Z,42.6
2023-01-13T12:40:01.095Z,43.4
2023-01-13T12:45:01.611Z,44.5
2023-01-13T12:55:01.167Z,45.1
2023-01-13T13:00:01.081Z,45.3
2023-01-13T13:05:01.412Z,45.4
2023-01-13T13:15:04.274Z,45.6
2023-01-13T13:25:01.117Z,45.6
2023-01-13T13:35:02.399Z,45.7
2023-01-13T13:45:01.151Z,45.8
2023-01-13T13:55:01.390Z,45.8
2023-01-13T14:00:02.270Z,45.8
2023-01-13T14:05:01.131Z,45.9
2023-01-13T14:10:01.317Z,45.9
2023-01-13T14:15:02.086Z,45.9
2023-01-13T14:20:03.372Z,45.9
2023-01-13T14:25:01.080Z,45.9
2023-01-13T14:35:01.169Z,45.9
2023-01-13T14:40:02.130Z,45.9
2023-01-13T14:45:01.347Z,45.9
2023-01-13T14:50:00.988Z,45.9
2023-01-13T14:55:01.186Z,45.9
2023-01-13T15:00:01.200Z,45.8
2023-01-13T15:05:01.505Z,45.7
2023-01-13T15:10:01.280Z,45.7
2023-01-13T15:15:01.314Z,45.7
2023-01-13T15:20:01.191Z,45.7
2023-01-13T15:25:01.274Z,45.6
2023-01-13T15:35:03.664Z,45.5
2023-01-13T15:40:01.044Z,45.4
2023-01-13T15:45:02.147Z,45.3
2023-01-13T15:50:02.584Z,45.2
2023-01-13T15:55:01.004Z,45.1
2023-01-13T16:00:01.141Z,45.0
2023-01-13T16:05:01.168Z,45.1
2023-01-13T16:15:01.084Z,45.0
2023-01-13T16:20:01.331Z,45.0
2023-01-13T16:25:01.236Z,44.9
2023-01-13T16:35:01.591Z,45.0
2023-01-13T16:40:01.980Z,45.0
2023-01-13T16:45:01.507Z,45.2
2023-01-13T16:55:01.121Z,45.4
2023-01-13T17:05:01.176Z,45.5
2023-01-13T17:15:01.574Z,45.3
2023-01-13T17:20:01.572Z,45.3
2023-01-13T17:25:02.264Z,45.2
2023-01-13T17:35:01.668Z,45.8
2023-01-13T18:05:02.143Z,45.1
2023-01-13T18:10:01.059Z,45.1
2023-01-13T18:15:02.221Z,44.8
2023-01-13T18:25:01.123Z,44.2
2023-01-13T18:30:04.292Z,43.9
2023-01-13T18:35:07.153Z,43.6
2023-01-13T18:45:01.173Z,43.4
2023-01-13T18:50:01.328Z,43.4
2023-01-13T18:55:01.049Z,43.2
2023-01-13T19:05:01.169Z,42.9
2023-01-13T19:10:01.069Z,42.8
2023-01-13T19:15:01.124Z,42.9
2023-01-13T19:25:01.678Z,42.5
2023-01-13T19:35:01.377Z,42.3
2023-01-13T19:45:01.544Z,42.0
2023-01-13T19:50:02.388Z,41.9
2023-01-13T19:55:01.941Z,42.0
2023-01-13T20:00:01.205Z,42.0
2023-01-13T20:05:02.041Z,42.0
2023-01-13T20:10:01.607Z,42.1
2023-01-13T20:15:02.034Z,42.1
2023-01-13T20:20:01.385Z,42.1
2023-01-13T20:25:01.190Z,42.0
2023-01-13T20:30:01.555Z,41.9
2023-01-13T20:35:02.024Z,41.9
2023-01-13T20:45:01.087Z,43.2
2023-01-13T20:50:01.075Z,43.4
2023-01-13T20:55:01.745Z,43.6
2023-01-13T21:05:01.143Z,43.8
2023-01-13T21:10:01.585Z,43.9
2023-01-13T21:15:01.933Z,43.9
2023-01-13T21:25:01.375Z,44.0
2023-01-13T21:30:03.443Z,44.1
2023-01-13T21:35:01.407Z,44.1
2023-01-13T21:45:01.168Z,44.1
2023-01-13T21:50:01.049Z,42.5
2023-01-13T21:55:01.207Z,41.6
2023-01-13T22:05:01.062Z,42.1
2023-01-13T22:10:02.786Z,42.7
2023-01-13T22:15:01.527Z,43.0
2023-01-13T22:25:01.350Z,43.3
2023-01-13T22:30:01.853Z,43.4
2023-01-13T22:35:01.595Z,43.5
2023-01-13T22:45:01.974Z,43.8
2023-01-13T22:50:01.129Z,43.8
2023-01-13T22:55:00.549Z,43.8
2023-01-13T23:05:01.481Z,43.9
2023-01-13T23:10:01.139Z,44.1
2023-01-13T23:15:01.288Z,44.2
2023-01-13T23:25:01.766Z,44.5
2023-01-13T23:30:01.423Z,44.7
2023-01-13T23:35:01.183Z,44.8
2023-01-13T23:45:01.129Z,43.9
2023-01-13T23:50:01.649Z,42.7
2023-01-13T23:55:01.949Z,42.1
